• Join FlightAware (Why Join?)
  • Login
  • US Flag 
12:08PM EDT


 

Airport Tracker/Info


-or-


 

Live Flight TrackerFlight Track Log ✈ EGF2794 ✈ 27-Apr-2012 ✈ KGPT - KDFW

Flight Track Log - Related Links

Times and Time Zones

All times are in EDT time to prevent confusion due to time zone crossing. See the EGF2794 flight status page for this flight to view local times or setup timezone preferences in your user account.

Time Position Orientation Groundspeed Altitude Reporting Facility
EDT Latitude Longitude Course Direction KTS MPH feet Rate Location/Type
07:01PM 30.4137 -89.0947 206° Southwest  Level FlightAware Approximate
07:02PM 30.4387 -89.1935 145° Southeast  Level FlightAware Approximate
07:03PM 30.3561 -89.1269 273° West 204 235 4,700  Level Houston Center
07:04PM 30.3597 -89.2108 292° West 236 272 6,700 2,040 Climbing Houston Center
07:05PM 30.3883 -89.2944 291° West 257 296 8,800 1,980 Climbing Houston Center
07:06PM 30.4169 -89.3806 290° West 280 322 10,700 1,800 Climbing Houston Center
07:07PM 30.4500 -89.4833 291° West 296 341 12,500 1,560 Climbing Houston Center
07:08PM 30.4828 -89.5814 289° West 309 356 13,900 1,440 Climbing Houston Center
07:09PM 30.5133 -89.6819 292° West 327 376 15,400 1,440 Climbing Houston Center
07:10PM 30.5483 -89.7850 290° West 333 383 16,800 1,380 Climbing Houston Center
07:11PM 30.5811 -89.8906 290° West 344 396 18,200 1,380 Climbing Houston Center
07:12PM 30.6136 -89.9961 291° West 344 396 19,600 1,380 Climbing Houston Center
07:13PM 30.6483 -90.1017 290° West 344 396 21,000 1,440 Climbing Houston Center
07:14PM 30.6831 -90.2147 289° West 349 402 22,500 1,440 Climbing Houston Center
07:15PM 30.7156 -90.3231 290° West 354 407 23,900 1,440 Climbing Houston Center
07:16PM 30.7497 -90.4336 290° West 360 414 25,400 1,440 Climbing Houston Center
07:17PM 30.7842 -90.5419 289° West 360 414 26,800 1,260 Climbing Houston Center
07:18PM 30.8164 -90.6506 291° West 360 414 28,000 1,200 Climbing Houston Center
07:19PM 30.8506 -90.7564 289° West 360 414 29,200 1,140 Climbing Houston Center
07:20PM 30.8825 -90.8675 290° West 360 414 30,300 1,140 Climbing Houston Center
07:21PM 30.9164 -90.9786 291° West 366 421 31,500 1,080 Climbing Houston Center
07:22PM 30.9525 -91.0872 290° West 366 421 32,500 1,020 Climbing Houston Center
07:23PM 30.9864 -91.1986 290° West 366 421 33,600 960 Climbing Houston Center
07:24PM 31.0222 -91.3147 288° West 371 427 34,500 900 Climbing Houston Center
07:25PM 31.0536 -91.4283 290° West 371 427 35,500 720 Climbing Houston Center
07:26PM 31.0892 -91.5397 288° West 371 427 36,000 240 Climbing Houston Center
07:27PM 31.1206 -91.6539 290° West 366 421 36,000  Level Houston Center
07:28PM 31.1539 -91.7606 289° West 366 421 36,000  Level Houston Center
07:29PM 31.1853 -91.8697 290° West 366 421 36,000  Level Houston Center
07:30PM 31.2203 -91.9814 290° West 366 421 36,000  Level Houston Center
07:31PM 31.2575 -92.1031 288° West 377 434 36,000  Level Houston Center
07:32PM 31.2886 -92.2150 290° West 377 434 36,000  Level Houston Center
07:33PM 31.3256 -92.3342 288° West 382 440 36,000  Level Houston Center
07:34PM 31.3583 -92.4511 289° West 382 440 36,000  Level Houston Center
07:35PM 31.3908 -92.5633 289° West 382 440 36,000  Level Houston Center
07:38PM 31.4731 -92.8442 288° West 380 437 36,000  Level Fort Worth Center
07:39PM 31.5042 -92.9597 289° West 380 437 36,000  Level Fort Worth Center
07:40PM 31.5375 -93.0750 288° West 375 432 36,000  Level Fort Worth Center
07:41PM 31.5708 -93.1928 288° West 375 432 36,000  Level Fort Worth Center
07:42PM 31.6039 -93.3108 290° West 375 432 36,000  Level Fort Worth Center
07:43PM 31.6389 -93.4239 288° West 375 432 36,000  Level Fort Worth Center
07:44PM 31.6694 -93.5375 285° West 375 432 36,000  Level Fort Worth Center
07:46PM 31.7203 -93.7672 284° West 370 426 36,000  Level Fort Worth Center
07:47PM 31.7444 -93.8833 281° West 375 432 36,000  Level Fort Worth Center
07:48PM 31.7644 -94.0025 285° West 375 432 36,000  Level Fort Worth Center
07:49PM 31.7928 -94.1286 284° West 370 426 36,000  Level Fort Worth Center
07:50PM 31.8167 -94.2450 283° West 370 426 36,000  Level Fort Worth Center
07:51PM 31.8403 -94.3614 283° West 370 426 36,000  Level Fort Worth Center
07:52PM 31.8639 -94.4781 282° West 370 426 36,000  Level Fort Worth Center
07:53PM 31.8856 -94.5972 282° West 370 426 36,000 -240 Level Fort Worth Center
07:54PM 31.9069 -94.7142 284° West 370 426 35,600 -720 Descending Fort Worth Center
07:55PM 31.9325 -94.8383 284° West 370 426 34,600 -1,020 Descending Fort Worth Center
07:56PM 31.9578 -94.9600 282° West 381 438 33,600 -1,200 Descending Fort Worth Center
07:57PM 31.9811 -95.0917 282° West 393 452 32,200 -1,500 Descending Fort Worth Center
07:58PM 32.0044 -95.2256 282° West 410 472 30,700 -1,500 Descending Fort Worth Center
07:59PM 32.0297 -95.3622 283° West 422 486 29,200 -1,500 Descending Fort Worth Center
08:00PM 32.0544 -95.4842 282° West 412 474 27,700 -1,680 Descending Fort Worth Center
08:01PM 32.0794 -95.6186 294° West 412 474 25,900 -1,680 Descending Fort Worth Center
08:03PM 32.1639 -95.8478 294° West 398 458 22,700 -1,680 Descending Fort Worth Center
08:04PM 32.2072 -95.9647 294° West 398 458 20,900 -1,800 Descending Fort Worth Center
08:05PM 32.2522 -96.0869 299° West 392 451 19,100 -2,040 Descending Fort Worth Center
08:05PM 32.2792 -96.1444 298° West 367 422 17,700 -1,920 Descending FAA TRACON SMA TRACON (SMA)
08:06PM 32.3081 -96.2094 289° West 369 425 16,700 -1,680 Descending FAA TRACON SMA TRACON (SMA)
08:07PM 32.3308 -96.2900 293° West 366 421 15,500 -1,800 Descending FAA TRACON SMA TRACON (SMA)
08:07PM 32.3567 -96.3617 292° West 341 392 14,400 -1,500 Descending FAA TRACON SMA TRACON (SMA)
08:08PM 32.3781 -96.4239 308° West 331 381 13,500 -1,500 Descending FAA TRACON SMA TRACON (SMA)
08:09PM 32.4175 -96.4836 315° West 337 388 12,500 -1,440 Descending FAA TRACON SMA TRACON (SMA)
08:09PM 32.4633 -96.5381 315° West 336 387 11,600 -1,140 Descending FAA TRACON SMA TRACON (SMA)
08:10PM 32.5036 -96.5858 315° West 333 383 11,000 -540 Descending FAA TRACON SMA TRACON (SMA)
08:11PM 32.5478 -96.6386 314° West 323 372 10,900 -120 Descending FAA TRACON SMA TRACON (SMA)
08:11PM 32.5881 -96.6886 315° West 301 346 10,900  Level FAA TRACON SMA TRACON (SMA)
08:12PM 32.6242 -96.7319 314° West 300 345 10,900  Level FAA TRACON SMA TRACON (SMA)
08:13PM 32.6653 -96.7833 314° West 301 346 10,900  Level FAA TRACON SMA TRACON (SMA)
08:13PM 32.7000 -96.8261 315° West 290 334 10,900  Level FAA TRACON SMA TRACON (SMA)
08:14PM 32.7350 -96.8681 316° Northwest 251 289 10,900  Level FAA TRACON SMA TRACON (SMA)
08:15PM 32.7672 -96.9050 312° West 243 280 10,900  Level FAA TRACON SMA TRACON (SMA)
08:15PM 32.7983 -96.9458 300° West 242 278 10,900 -540 Level FAA TRACON SMA TRACON (SMA)
08:16PM 32.8183 -96.9872 304° West 236 272 10,200 -1,440 Descending FAA TRACON SMA TRACON (SMA)
08:17PM 32.8456 -97.0347 304° West 236 272 9,000 -1,680 Descending FAA TRACON SMA TRACON (SMA)
08:17PM 32.8697 -97.0775 305° West 255 293 8,000 -1,620 Descending FAA TRACON SMA TRACON (SMA)
08:18PM 32.8969 -97.1236 334° Northwest 242 278 6,900 -1,440 Descending FAA TRACON SMA TRACON (SMA)
08:19PM 32.9325 -97.1439 360° North 255 293 6,100 -1,320 Descending FAA TRACON SMA TRACON (SMA)
08:19PM 32.9792 -97.1442 North 248 285 5,200 -1,440 Descending FAA TRACON SMA TRACON (SMA)
08:20PM 33.0272 -97.1392 56° Northeast 254 292 4,200 -1,560 Descending FAA TRACON SMA TRACON (SMA)
08:21PM 33.0525 -97.0936 124° Southeast 245 282 3,100 -1,140 Descending FAA TRACON SMA TRACON (SMA)
08:21PM 33.0358 -97.0644 124° Southeast 195 224 2,700 -660 Descending FAA TRACON SMA TRACON (SMA)